Time;durP1;ratioP1;P1;durP2;ratioP2;P2;SDS_P1;SDS_P2;PMS_P1;PMS_P2;Temp;Humidity;BMP_temperature;BMP_pressure;BME280_temperature;BME280_humidity;BME280_pressure;Samples;Min_cycle;Max_cycle;Signal;HPM_P1;HPM_P2
2022/09/01 00:00:31;;;;;;;4.90;3.88;;;;;;;14.85;55.32;100318.88;10345818;28;20103;-59
2022/09/01 00:05:33;;;;;;;5.43;3.40;;;;;;;14.92;55.11;100314.00;10345134;28;20406;-59
2022/09/01 00:10:35;;;;;;;5.63;4.05;;;;;;;14.76;55.42;100316.03;10345865;28;20049;-59
2022/09/01 00:15:37;;;;;;;6.30;4.10;;;;;;;14.53;56.04;100315.03;10344621;28;20053;-59
2022/09/01 00:20:39;;;;;;;9.13;4.30;;;;;;;14.63;56.01;100321.34;10347052;28;20513;-59
2022/09/01 00:25:40;;;;;;;7.13;4.00;;;;;;;14.76;55.67;100316.03;10337658;28;20050;-60
2022/09/01 00:30:42;;;;;;;5.95;4.30;;;;;;;14.73;55.74;100326.78;10343964;28;20057;-59
2022/09/01 00:35:44;;;;;;;7.63;4.80;;;;;;;14.39;55.88;100326.47;10343006;28;20053;-59
2022/09/01 00:40:46;;;;;;;4.55;3.70;;;;;;;14.09;56.72;100325.09;10344597;28;20391;-59
2022/09/01 00:45:50;;;;;;;6.78;3.78;;;;;;;14.07;56.38;100319.94;10342373;28;20049;-59
2022/09/01 00:50:52;;;;;;;4.90;3.30;;;;;;;14.05;56.59;100324.47;10344638;28;20073;-59
2022/09/01 00:55:55;;;;;;;4.85;3.42;;;;;;;13.96;56.53;100324.25;10341616;28;20049;-59
2022/09/01 01:00:58;;;;;;;6.63;3.45;;;;;;;14.01;56.35;100319.50;10342345;28;20599;-59
2022/09/01 01:06:07;;;;;;;6.88;3.45;;;;;;;14.10;56.79;100326.78;10340289;28;20133;-59
2022/09/01 01:11:19;;;;;;;9.35;3.90;;;;;;;14.09;57.07;100314.56;10342576;28;20045;-59
2022/09/01 01:16:23;;;;;;;6.13;3.88;;;;;;;14.18;56.61;100313.94;10340883;28;20058;-59
2022/09/01 01:27:04;;;;;;;4.75;3.80;;;;;;;14.16;56.48;100305.31;10341855;28;20053;-59
2022/09/01 01:32:11;;;;;;;4.93;3.40;;;;;;;14.16;56.73;100297.44;10342040;28;20073;-59
2022/09/01 01:37:13;;;;;;;8.23;4.47;;;;;;;13.95;57.05;100301.50;10339860;28;20054;-59
2022/09/01 01:42:15;;;;;;;5.43;4.30;;;;;;;13.66;58.25;100295.59;10341075;28;20442;-59
2022/09/01 01:47:17;;;;;;;7.63;4.57;;;;;;;13.81;58.00;100299.81;10342239;28;20514;-59
2022/09/01 01:52:20;;;;;;;5.88;4.30;;;;;;;13.95;57.47;100302.38;10341961;28;20050;-59
2022/09/01 01:57:30;;;;;;;6.47;4.10;;;;;;;13.97;57.05;100302.25;10341268;28;20194;-59
2022/09/01 02:02:32;;;;;;;6.03;4.85;;;;;;;13.83;57.32;100308.44;10345551;28;20060;-59
2022/09/01 02:07:34;;;;;;;7.47;3.55;;;;;;;13.72;57.50;100301.28;10355892;28;20515;-59
2022/09/01 02:12:36;;;;;;;7.07;4.00;;;;;;;13.83;57.68;100311.09;10355409;28;20060;-59
2022/09/01 02:17:38;;;;;;;6.47;3.97;;;;;;;13.81;57.64;100302.44;10353164;28;20046;-59
2022/09/01 02:22:42;;;;;;;7.18;4.88;;;;;;;13.51;57.82;100304.50;10356277;28;20410;-59
2022/09/01 02:27:48;;;;;;;6.70;4.47;;;;;;;13.46;58.07;100302.16;10356451;28;20074;-59
2022/09/01 02:32:49;;;;;;;7.65;4.30;;;;;;;13.54;58.15;100293.78;10356141;28;20057;-60
2022/09/01 02:37:55;;;;;;;6.10;4.55;;;;;;;13.60;57.84;100288.09;10355517;28;20061;-59
2022/09/01 02:42:59;;;;;;;5.28;4.60;;;;;;;13.56;58.30;100291.88;10356279;28;20060;-59
2022/09/01 02:48:01;;;;;;;8.40;5.38;;;;;;;13.40;58.81;100289.41;10356814;28;20049;-59
2022/09/01 02:53:08;;;;;;;6.97;5.07;;;;;;;13.09;59.74;100288.88;10355598;28;20452;-59
2022/09/01 02:58:15;;;;;;;7.00;4.40;;;;;;;13.01;59.92;100285.88;10355544;28;20419;-59
2022/09/01 03:03:18;;;;;;;7.80;4.78;;;;;;;13.04;60.29;100286.53;10353502;28;20167;-59
2022/09/01 03:08:23;;;;;;;7.03;5.40;;;;;;;13.18;59.92;100283.00;10351056;28;20169;-59
2022/09/01 03:13:26;;;;;;;8.63;6.28;;;;;;;12.90;59.96;100273.47;10347432;28;20049;-59
2022/09/01 03:18:27;;;;;;;6.63;4.72;;;;;;;12.80;60.61;100282.84;10348232;28;20046;-59
2022/09/01 03:23:30;;;;;;;7.20;5.05;;;;;;;12.91;60.43;100275.97;10347957;28;20050;-59
2022/09/01 03:28:32;;;;;;;8.23;6.00;;;;;;;12.78;60.10;100280.31;10345363;28;20050;-59
2022/09/01 03:33:35;;;;;;;6.68;5.05;;;;;;;12.57;60.15;100286.91;10349262;28;20064;-59
2022/09/01 03:38:37;;;;;;;7.90;4.40;;;;;;;12.70;60.22;100290.44;10347383;28;20413;-59
2022/09/01 03:43:39;;;;;;;5.85;4.82;;;;;;;12.77;60.36;100289.13;10347821;28;20567;-59
2022/09/01 03:48:57;;;;;;;7.50;4.72;;;;;;;12.69;60.86;100285.31;10347599;28;20046;-59
2022/09/01 03:53:59;;;;;;;8.10;5.47;;;;;;;12.60;60.44;100278.84;10346275;28;20045;-58
2022/09/01 03:59:01;;;;;;;5.40;4.30;;;;;;;12.65;61.03;100279.41;10346330;28;20429;-59
2022/09/01 04:04:03;;;;;;;6.03;4.82;;;;;;;12.70;60.90;100272.06;10346015;28;20053;-59
2022/09/01 04:09:05;;;;;;;5.45;4.47;;;;;;;12.66;61.07;100283.72;10344672;28;20522;-59
2022/09/01 04:14:10;;;;;;;4.85;4.32;;;;;;;12.62;61.18;100276.16;10345735;28;20050;-58
2022/09/01 04:19:24;;;;;;;7.78;4.53;;;;;;;12.65;61.29;100283.81;10344563;28;20041;-59
2022/09/01 04:24:29;;;;;;;6.18;4.50;;;;;;;12.71;61.12;100284.28;10345054;28;20064;-59
2022/09/01 04:29:31;;;;;;;6.30;5.28;;;;;;;12.73;60.85;100292.03;10344996;28;20140;-59
2022/09/01 04:34:39;;;;;;;5.25;4.30;;;;;;;12.66;61.07;100286.31;10344992;28;20112;-59
2022/09/01 04:39:47;;;;;;;6.43;4.57;;;;;;;12.46;61.33;100288.50;10346620;28;20092;-59
2022/09/01 04:44:56;;;;;;;5.30;4.45;;;;;;;12.37;61.85;100291.72;10344582;28;20181;-59
2022/09/01 04:49:59;;;;;;;6.40;4.75;;;;;;;12.43;61.70;100292.19;10345316;28;20049;-59
2022/09/01 04:55:02;;;;;;;6.00;5.40;;;;;;;12.50;61.50;100288.22;10344070;28;20054;-59
2022/09/01 05:00:04;;;;;;;9.38;5.32;;;;;;;12.50;61.23;100296.09;10344321;28;20046;-59
2022/09/01 05:05:11;;;;;;;7.97;6.30;;;;;;;12.33;61.46;100288.44;10344308;28;20406;-59
2022/09/01 05:10:13;;;;;;;8.18;5.97;;;;;;;12.17;62.08;100297.28;10344338;28;20097;-59
2022/09/01 05:15:16;;;;;;;7.95;4.47;;;;;;;12.25;62.21;100295.06;10342871;28;20460;-59
2022/09/01 05:20:19;;;;;;;5.85;3.92;;;;;;;12.63;61.85;100293.56;10344596;28;20140;-60
2022/09/01 05:25:22;;;;;;;6.75;4.90;;;;;;;12.90;61.66;100284.78;10343325;28;20050;-59
2022/09/01 05:30:27;;;;;;;15.02;4.65;;;;;;;13.10;61.21;100298.44;10344076;28;20064;-59
2022/09/01 05:35:30;;;;;;;7.30;4.57;;;;;;;13.32;61.06;100293.47;10342564;28;20961;-59
2022/09/01 05:40:40;;;;;;;6.93;4.95;;;;;;;13.54;60.35;100302.50;10343413;28;20057;-60
2022/09/01 05:45:42;;;;;;;6.47;3.95;;;;;;;13.46;60.24;100296.06;10343300;28;20089;-59
2022/09/01 05:51:09;;;;;;;5.57;4.68;;;;;;;13.55;60.44;100301.56;10343624;28;20069;-60
2022/09/01 05:56:31;;;;;;;7.15;5.10;;;;;;;13.91;59.58;100298.25;10341740;28;20152;-59
2022/09/01 06:01:33;;;;;;;4.85;4.30;;;;;;;14.02;58.94;100287.88;10342792;28;20052;-60
2022/09/01 06:06:45;;;;;;;4.60;4.10;;;;;;;14.16;59.21;100290.38;10340684;28;20085;-59
2022/09/01 06:12:16;;;;;;;4.10;3.53;;;;;;;14.41;58.75;100297.44;10342410;28;20882;-59
2022/09/01 06:17:23;;;;;;;4.15;3.10;;;;;;;14.66;58.25;100293.91;10342946;28;20461;-59
2022/09/01 06:22:27;;;;;;;5.65;2.80;;;;;;;15.14;57.27;100300.97;10343466;28;20138;-59
2022/09/01 06:27:29;;;;;;;5.28;3.30;;;;;;;15.51;56.61;100310.50;10342516;28;20073;-59
2022/09/01 06:32:33;;;;;;;7.70;3.25;;;;;;;15.59;56.39;100300.22;10342506;28;20056;-59
2022/09/01 06:37:37;;;;;;;4.47;3.10;;;;;;;15.58;56.77;100306.47;10342177;28;20056;-59
2022/09/01 06:42:40;;;;;;;6.40;3.33;;;;;;;15.87;56.11;100307.78;10342109;28;20230;-59
2022/09/01 06:47:43;;;;;;;4.05;2.80;;;;;;;16.21;54.51;100304.22;10341857;28;20056;-59
2022/09/01 06:52:45;;;;;;;6.30;2.85;;;;;;;16.35;52.88;100305.78;10345574;28;20049;-60
2022/09/01 06:58:12;;;;;;;11.68;3.22;;;;;;;16.48;51.75;100309.22;10348121;28;20253;-59
2022/09/01 07:03:33;;;;;;;8.68;2.78;;;;;;;16.21;51.11;100311.31;10348124;28;20058;-60
2022/09/01 07:08:38;;;;;;;8.63;2.70;;;;;;;16.19;51.23;100311.44;10349310;28;20796;-59
2022/09/01 07:14:02;;;;;;;6.13;2.80;;;;;;;16.66;50.25;100320.13;10350442;28;20057;-59
2022/09/01 07:19:19;;;;;;;6.53;2.53;;;;;;;17.00;49.16;100313.84;10350887;28;20050;-59
2022/09/01 07:24:21;;;;;;;4.10;2.30;;;;;;;17.34;48.71;100314.63;10349276;28;20058;-59
2022/09/01 07:29:31;;;;;;;7.75;2.40;;;;;;;17.68;48.09;100311.72;10350297;28;20054;-60
2022/09/01 07:34:34;;;;;;;11.23;2.72;;;;;;;18.17;46.54;100312.88;10347181;28;20482;-59
2022/09/01 07:39:46;;;;;;;4.45;2.30;;;;;;;18.72;45.46;100312.50;10346240;28;20504;-60
2022/09/01 07:44:51;;;;;;;5.65;2.50;;;;;;;19.07;44.42;100320.03;10345815;28;20050;-59
2022/09/01 07:49:54;;;;;;;5.78;2.00;;;;;;;19.18;43.62;100319.88;10347633;28;20045;-60
2022/09/01 07:55:16;;;;;;;3.38;1.85;;;;;;;19.01;43.23;100317.88;10347888;28;20062;-59
2022/09/01 08:00:20;;;;;;;5.78;1.90;;;;;;;19.08;43.45;100319.03;10347561;28;20148;-60
2022/09/01 08:05:25;;;;;;;5.47;2.00;;;;;;;19.04;42.76;100315.81;10344237;28;20064;-59
2022/09/01 08:10:27;;;;;;;3.88;1.70;;;;;;;19.04;43.27;100318.47;10345293;28;21051;-59
2022/09/01 08:15:29;;;;;;;3.53;1.70;;;;;;;18.82;43.17;100318.66;10343779;28;20848;-59
2022/09/01 08:20:51;;;;;;;3.40;1.70;;;;;;;18.76;42.80;100329.81;10345923;28;20561;-59
2022/09/01 08:25:53;;;;;;;7.68;1.85;;;;;;;19.31;42.09;100312.53;10340935;28;20141;-59
2022/09/01 08:30:55;;;;;;;6.88;1.90;;;;;;;19.45;41.10;100314.78;10341572;28;20058;-59
2022/09/01 08:35:56;;;;;;;5.75;1.90;;;;;;;20.10;40.09;100306.09;10344323;28;20157;-60
2022/09/01 08:40:59;;;;;;;6.05;1.90;;;;;;;20.36;39.33;100309.78;10345481;28;20406;-60
2022/09/01 08:46:10;;;;;;;3.20;1.60;;;;;;;21.02;37.91;100308.69;10344265;28;20072;-60
2022/09/01 08:51:20;;;;;;;5.38;1.70;;;;;;;22.14;36.83;100302.78;10345352;28;20136;-60
2022/09/01 08:56:22;;;;;;;7.25;2.35;;;;;;;22.30;35.71;100302.03;10345333;28;20789;-60
2022/09/01 09:01:47;;;;;;;8.07;1.80;;;;;;;21.99;35.84;100288.31;10344500;28;20064;-59
2022/09/01 09:07:15;;;;;;;5.45;1.80;;;;;;;22.27;35.89;100294.38;10345134;28;21068;-59
2022/09/01 09:12:39;;;;;;;6.30;1.77;;;;;;;22.41;36.06;100288.44;10344871;28;20049;-59
2022/09/01 09:17:58;;;;;;;4.43;1.70;;;;;;;23.10;35.19;100290.91;10344926;28;20510;-59
2022/09/01 09:23:15;;;;;;;5.38;1.65;;;;;;;23.21;34.62;100282.59;10342920;28;20636;-59
2022/09/01 09:28:17;;;;;;;6.35;2.00;;;;;;;22.77;35.50;100273.97;10341821;28;20065;-59
2022/09/01 09:33:37;;;;;;;4.40;1.80;;;;;;;23.41;33.95;100271.47;10343070;28;20050;-59
2022/09/01 09:39:15;;;;;;;3.83;1.70;;;;;;;23.26;34.66;100266.94;10341889;28;20081;-60
2022/09/01 09:44:30;;;;;;;10.13;2.00;;;;;;;23.51;34.47;100276.66;10344611;28;20053;-59
2022/09/01 09:49:33;;;;;;;2.42;1.60;;;;;;;23.30;34.53;100260.25;10343461;28;20534;-59
2022/09/01 09:54:57;;;;;;;7.63;2.08;;;;;;;23.14;34.75;100252.22;10343959;28;20050;-60
2022/09/01 10:00:08;;;;;;;6.15;1.88;;;;;;;23.24;34.57;100247.56;10342707;28;20209;-60
2022/09/01 10:05:27;;;;;;;5.40;2.20;;;;;;;23.35;33.66;100236.59;10338879;28;20065;-60
2022/09/01 10:10:44;;;;;;;7.72;2.05;;;;;;;23.46;33.99;100228.28;10340819;28;20061;-60
2022/09/01 10:16:06;;;;;;;5.63;1.90;;;;;;;23.35;34.17;100217.91;10337683;28;20599;-60
2022/09/01 10:21:25;;;;;;;5.78;2.00;;;;;;;23.49;34.66;100218.09;10342315;28;20136;-60
2022/09/01 10:26:34;;;;;;;8.25;1.92;;;;;;;23.59;34.05;100217.94;10341473;28;20080;-60
2022/09/01 10:31:38;;;;;;;4.35;1.90;;;;;;;23.56;34.56;100209.41;10334455;28;20417;-59
2022/09/01 10:36:42;;;;;;;5.82;2.00;;;;;;;23.64;34.59;100210.22;10349317;28;20147;-60
2022/09/01 10:41:55;;;;;;;7.35;1.90;;;;;;;23.79;34.27;100197.88;10350629;28;20058;-60
2022/09/01 10:47:09;;;;;;;3.90;1.70;;;;;;;24.03;34.25;100195.16;10350265;28;20054;-59
2022/09/01 10:52:42;;;;;;;6.22;2.17;;;;;;;23.43;34.09;100192.06;10350773;28;20152;-60
2022/09/01 10:57:47;;;;;;;7.18;1.95;;;;;;;23.26;34.80;100189.53;10350022;28;20124;-59
2022/09/01 11:03:10;;;;;;;7.05;1.92;;;;;;;23.45;34.74;100183.91;10349904;28;20575;-59
2022/09/01 11:08:31;;;;;;;6.78;2.13;;;;;;;23.47;34.25;100181.91;10350218;28;20389;-59
2022/09/01 11:13:36;;;;;;;10.13;2.20;;;;;;;23.35;34.34;100186.69;10348802;28;20443;-59
2022/09/01 11:18:38;;;;;;;3.70;1.65;;;;;;;23.51;34.01;100177.06;10349097;28;20046;-59
2022/09/01 11:23:40;;;;;;;4.00;2.00;;;;;;;23.87;33.46;100171.16;10349897;28;20395;-59
2022/09/01 11:28:43;;;;;;;7.40;2.00;;;;;;;23.58;33.80;100168.19;10348872;28;20057;-59
2022/09/01 11:33:48;;;;;;;10.85;1.98;;;;;;;23.70;33.46;100177.50;10349018;28;20049;-59
2022/09/01 11:38:54;;;;;;;5.85;1.80;;;;;;;24.11;32.94;100164.91;10349111;28;20136;-59
2022/09/01 11:43:59;;;;;;;6.72;1.90;;;;;;;24.15;32.11;100164.41;10347179;28;20124;-60
2022/09/01 11:49:07;;;;;;;6.75;1.70;;;;;;;24.10;31.73;100168.59;10348124;28;20525;-59
2022/09/01 11:54:09;;;;;;;4.03;1.77;;;;;;;24.01;31.43;100159.75;10347297;28;20054;-60
2022/09/01 11:59:11;;;;;;;4.05;1.80;;;;;;;23.90;31.69;100154.75;10345960;28;20060;-59
2022/09/01 12:04:22;;;;;;;4.90;1.80;;;;;;;23.86;30.44;100158.78;10346806;28;20060;-60
2022/09/01 12:09:40;;;;;;;3.05;1.67;;;;;;;24.13;30.60;100137.00;10347309;28;20406;-59
2022/09/01 12:14:42;;;;;;;7.00;1.80;;;;;;;24.59;29.87;100134.44;10347169;28;20143;-59
2022/09/01 12:20:31;;;;;;;3.03;1.60;;;;;;;25.25;28.11;100125.78;10347846;28;20046;-59
2022/09/01 12:25:34;;;;;;;3.05;1.75;;;;;;;25.11;27.96;100122.06;10348064;28;20068;-60
2022/09/01 12:30:39;;;;;;;4.30;1.67;;;;;;;24.97;28.28;100120.16;10347081;28;20176;-60
2022/09/01 12:35:41;;;;;;;2.65;1.70;;;;;;;25.17;27.79;100112.47;10346525;28;20132;-60
2022/09/01 12:40:43;;;;;;;5.57;1.67;;;;;;;25.32;27.65;100114.19;10345879;28;20563;-60
2022/09/01 12:45:46;;;;;;;2.72;1.58;;;;;;;25.46;27.23;100108.03;10345447;28;20356;-60
2022/09/01 12:50:49;;;;;;;5.43;1.58;;;;;;;25.05;27.78;100109.38;10342824;28;20486;-60
2022/09/01 12:55:59;;;;;;;3.58;1.63;;;;;;;25.11;26.56;100108.66;10345676;28;20558;-60
2022/09/01 13:01:06;;;;;;;5.50;1.90;;;;;;;25.42;26.20;100090.69;10342138;28;20041;-60
2022/09/01 13:06:17;;;;;;;6.28;1.70;;;;;;;24.73;27.69;100097.13;10344730;28;20100;-60
2022/09/01 13:11:19;;;;;;;3.28;1.55;;;;;;;24.99;27.45;100091.38;10342607;28;20101;-60
2022/09/01 13:16:21;;;;;;;5.95;1.70;;;;;;;24.78;27.58;100089.38;10343553;28;20397;-60
2022/09/01 13:21:23;;;;;;;5.88;1.63;;;;;;;24.84;28.07;100077.94;10344562;28;20046;-60
2022/09/01 13:26:25;;;;;;;5.35;1.70;;;;;;;25.16;27.07;100071.50;10343951;28;20525;-60
2022/09/01 13:31:28;;;;;;;4.15;1.63;;;;;;;25.07;27.62;100068.06;10342172;28;20143;-60
2022/09/01 13:36:30;;;;;;;5.70;1.58;;;;;;;25.03;27.18;100065.91;10342719;28;20057;-60
2022/09/01 13:41:52;;;;;;;6.90;1.80;;;;;;;25.25;26.72;100057.00;10342957;28;20169;-60
2022/09/01 13:46:54;;;;;;;6.03;1.50;;;;;;;25.51;26.43;100043.22;10343451;28;20046;-60
2022/09/01 13:52:16;;;;;;;3.85;1.60;;;;;;;25.68;25.73;100055.41;10344054;28;20045;-60
2022/09/01 13:57:17;;;;;;;2.40;1.50;;;;;;;26.04;25.41;100044.78;10343472;28;20053;-60
2022/09/01 14:02:19;;;;;;;5.82;1.60;;;;;;;26.52;24.23;100042.22;10349693;28;20137;-60
2022/09/01 14:07:21;;;;;;;4.40;1.60;;;;;;;26.69;24.49;100043.63;10351989;28;20413;-60
2022/09/01 14:12:23;;;;;;;3.97;1.50;;;;;;;26.23;25.16;100038.78;10347504;28;20129;-60
2022/09/01 14:17:25;;;;;;;4.32;1.60;;;;;;;26.53;25.45;100041.16;10348598;28;20049;-60
2022/09/01 14:22:27;;;;;;;5.53;1.50;;;;;;;26.64;25.20;100026.44;10350522;28;20060;-60
2022/09/01 14:27:28;;;;;;;6.25;1.77;;;;;;;26.98;25.02;100029.22;10350352;28;20625;-60
2022/09/01 14:32:30;;;;;;;4.30;1.63;;;;;;;27.09;24.09;100026.00;10347682;28;20056;-60
2022/09/01 14:37:32;;;;;;;4.25;1.80;;;;;;;26.72;24.47;100028.16;10350108;28;20056;-60
2022/09/01 14:42:35;;;;;;;5.65;1.63;;;;;;;25.85;25.26;100028.19;10349320;28;20057;-60
2022/09/01 14:47:38;;;;;;;5.18;1.50;;;;;;;25.30;26.17;100024.34;10349204;28;20892;-60
2022/09/01 14:52:40;;;;;;;4.68;1.60;;;;;;;25.81;26.03;100020.75;10349169;28;20149;-59
2022/09/01 14:57:41;;;;;;;5.18;1.65;;;;;;;26.04;25.47;100018.78;10349607;28;20050;-60
2022/09/01 15:02:44;;;;;;;6.75;1.50;;;;;;;26.29;24.99;100003.16;10346908;28;20091;-59
2022/09/01 15:07:46;;;;;;;3.58;1.77;;;;;;;26.44;24.33;99996.75;10349154;28;20140;-60
2022/09/01 15:12:48;;;;;;;8.07;1.80;;;;;;;26.08;25.02;100012.00;10349367;28;20050;-60
2022/09/01 15:17:50;;;;;;;4.15;1.70;;;;;;;26.16;25.00;100005.72;10349312;28;20473;-60
2022/09/01 15:22:52;;;;;;;4.18;1.70;;;;;;;25.87;25.26;100004.72;10346229;28;20399;-60
2022/09/01 15:27:54;;;;;;;4.32;1.50;;;;;;;25.38;25.64;100001.03;10349016;28;20056;-60
2022/09/01 15:32:56;;;;;;;2.97;1.60;;;;;;;25.12;25.92;99992.59;10347316;28;20050;-60
2022/09/01 15:37:58;;;;;;;2.88;1.40;;;;;;;25.01;26.32;99991.19;10349132;28;20058;-60
2022/09/01 15:43:00;;;;;;;6.25;1.77;;;;;;;25.09;25.63;99985.75;10349686;28;20056;-59
2022/09/01 15:48:02;;;;;;;3.17;1.92;;;;;;;25.55;25.58;99986.41;10348223;28;20054;-60
2022/09/01 15:53:07;;;;;;;2.58;1.50;;;;;;;25.63;24.88;99975.59;10347730;28;20069;-60
2022/09/01 15:58:11;;;;;;;4.60;1.60;;;;;;;25.80;24.91;99973.53;10346998;28;20056;-60
2022/09/01 16:03:13;;;;;;;6.18;1.80;;;;;;;25.78;25.11;99978.25;10347809;28;20046;-60
2022/09/01 16:08:15;;;;;;;4.90;1.80;;;;;;;25.82;25.22;99977.69;10343790;28;20411;-60
2022/09/01 16:13:17;;;;;;;2.78;1.42;;;;;;;25.50;24.79;99978.13;10343423;28;20045;-60
2022/09/01 16:18:35;;;;;;;3.58;1.50;;;;;;;25.10;24.86;99982.03;10345513;28;20129;-60
2022/09/01 16:23:47;;;;;;;3.78;1.70;;;;;;;24.85;25.28;99971.78;10343368;28;20133;-60
2022/09/01 16:28:55;;;;;;;5.28;1.80;;;;;;;24.83;25.55;99973.81;10342575;28;20046;-60
2022/09/01 16:34:02;;;;;;;3.35;1.50;;;;;;;24.82;25.70;99966.78;10346618;28;20152;-59
2022/09/01 16:39:16;;;;;;;2.88;1.45;;;;;;;24.70;25.17;99971.72;10341986;28;20145;-59
2022/09/01 16:44:43;;;;;;;5.40;1.70;;;;;;;24.53;25.45;99966.69;10341861;28;20049;-60
2022/09/01 16:50:06;;;;;;;7.15;1.70;;;;;;;24.49;25.12;99960.84;10344761;28;20494;-59
2022/09/01 16:55:23;;;;;;;5.32;1.58;;;;;;;24.44;25.33;99957.06;10342507;28;20417;-60
2022/09/01 17:00:41;;;;;;;3.10;1.67;;;;;;;24.99;25.33;99954.91;10345338;28;20057;-60
2022/09/01 17:05:52;;;;;;;4.45;1.50;;;;;;;24.88;25.71;99950.84;10342694;28;20062;-59
2022/09/01 17:11:00;;;;;;;10.32;1.77;;;;;;;24.84;25.80;99948.69;10341714;28;20162;-59
2022/09/01 17:16:25;;;;;;;3.78;1.40;;;;;;;24.74;25.77;99948.97;10337790;28;20041;-59
2022/09/01 17:21:48;;;;;;;3.72;1.58;;;;;;;24.81;25.81;99954.44;10340316;28;20491;-60
2022/09/01 17:26:51;;;;;;;7.10;1.58;;;;;;;24.66;26.11;99956.19;10341125;28;20053;-59
2022/09/01 17:32:28;;;;;;;6.63;1.70;;;;;;;24.36;26.14;99946.44;10337766;28;20486;-59
2022/09/01 17:37:50;;;;;;;4.65;1.60;;;;;;;24.27;26.45;99945.66;10339714;28;20046;-59
2022/09/01 17:43:09;;;;;;;4.45;1.90;;;;;;;23.99;26.54;99948.03;10342525;28;20052;-60
2022/09/01 17:48:24;;;;;;;4.88;1.67;;;;;;;23.84;27.57;99963.13;10340008;28;20057;-59
2022/09/01 17:53:45;;;;;;;8.35;2.00;;;;;;;23.62;26.64;99963.91;10343551;28;20486;-59
2022/09/01 17:58:56;;;;;;;3.70;1.63;;;;;;;23.39;27.17;99958.47;10337715;28;20096;-60
2022/09/01 18:04:34;;;;;;;6.28;1.80;;;;;;;23.15;27.50;99960.38;10338586;28;20046;-59
2022/09/01 18:09:44;;;;;;;6.53;1.70;;;;;;;22.99;27.96;99961.28;10338399;28;20061;-60
2022/09/01 18:14:51;;;;;;;;;;;;;;;22.35;28.89;99964.78;10338815;28;20517;-60
2022/09/01 18:20:15;;;;;;;6.55;1.88;;;;;;;22.37;29.70;99973.44;10338264;28;19936;-60
2022/09/01 18:25:21;;;;;;;5.13;1.73;;;;;;;22.09;29.77;99974.75;10336258;28;20410;-59
2022/09/01 18:30:23;;;;;;;7.60;2.20;;;;;;;21.88;30.45;99987.69;10339784;28;20548;-60
2022/09/01 18:35:53;;;;;;;6.93;1.98;;;;;;;21.59;30.41;99993.41;10341861;28;20143;-60
2022/09/01 18:41:08;;;;;;;4.28;1.70;;;;;;;21.36;30.95;100002.94;10342487;28;20129;-59
2022/09/01 18:46:24;;;;;;;4.35;1.95;;;;;;;21.12;30.88;100015.22;10343543;28;20050;-59
2022/09/01 18:51:30;;;;;;;5.20;1.80;;;;;;;20.97;32.23;100012.28;10350119;28;20052;-59
2022/09/01 18:56:51;;;;;;;5.63;1.98;;;;;;;20.81;32.65;100017.50;10350653;28;20093;-59
2022/09/01 19:02:00;;;;;;;9.73;2.00;;;;;;;20.60;33.02;100025.78;10348645;28;20056;-59
2022/09/01 19:07:41;;;;;;;10.65;2.08;;;;;;;20.36;33.75;100032.69;10349268;28;20053;-60
2022/09/01 19:12:58;;;;;;;5.03;2.03;;;;;;;20.22;34.19;100034.03;10346098;28;20528;-59
2022/09/01 19:18:15;;;;;;;3.53;1.83;;;;;;;20.10;34.59;100032.59;10348814;28;20046;-59
2022/09/01 19:23:55;;;;;;;7.07;1.98;;;;;;;20.03;34.75;100037.66;10349474;28;20050;-59
2022/09/01 19:29:08;;;;;;;3.67;1.70;;;;;;;19.92;35.11;100042.34;10345502;28;20058;-59
2022/09/01 19:34:19;;;;;;;4.03;1.75;;;;;;;19.88;35.71;100044.47;10342728;28;20053;-59
2022/09/01 19:39:36;;;;;;;4.13;1.90;;;;;;;19.76;35.48;100045.63;10342522;28;20399;-59
2022/09/01 19:44:52;;;;;;;6.15;1.65;;;;;;;19.60;35.67;100052.53;10342352;28;20052;-59
2022/09/01 19:50:18;;;;;;;8.10;2.10;;;;;;;19.31;36.75;100056.13;10345975;28;20097;-59
2022/09/01 19:55:28;;;;;;;5.18;1.85;;;;;;;19.26;36.33;100052.22;10343905;28;20057;-58
2022/09/01 20:00:51;;;;;;;5.15;1.70;;;;;;;19.17;36.82;100053.94;10344975;28;20501;-58
2022/09/01 20:05:59;;;;;;;4.65;1.80;;;;;;;19.29;36.74;100050.13;10346775;28;20068;-58
2022/09/01 20:11:09;;;;;;;4.97;1.70;;;;;;;19.39;36.35;100053.59;10345369;28;20072;-58
2022/09/01 20:16:28;;;;;;;5.63;1.77;;;;;;;19.55;36.68;100057.41;10345985;28;20075;-58
2022/09/01 20:21:38;;;;;;;4.53;2.07;;;;;;;19.56;36.55;100056.44;10347121;28;20054;-59
2022/09/01 20:26:48;;;;;;;3.83;1.70;;;;;;;19.51;36.54;100064.00;10347015;28;20061;-59
2022/09/01 20:31:55;;;;;;;7.22;2.00;;;;;;;19.32;36.81;100070.19;10345805;28;20338;-59
2022/09/01 20:37:10;;;;;;;5.28;1.80;;;;;;;19.27;36.88;100065.34;10345543;28;20045;-58
2022/09/01 20:42:37;;;;;;;5.40;1.85;;;;;;;19.30;37.30;100069.50;10346312;28;20060;-58
2022/09/01 20:47:38;;;;;;;4.07;1.70;;;;;;;19.20;36.49;100068.69;10344835;28;20056;-58
2022/09/01 20:52:59;;;;;;;5.25;1.67;;;;;;;19.18;37.02;100076.78;10343833;28;20053;-58
2022/09/01 20:58:19;;;;;;;5.95;1.80;;;;;;;19.19;36.76;100073.19;10345803;28;20068;-59
2022/09/01 21:03:36;;;;;;;;;;;;;;;18.85;37.62;100079.06;10343833;28;20058;-58
2022/09/01 21:08:55;;;;;;;4.22;2.00;;;;;;;19.09;37.41;100077.66;10341652;28;20417;-58
2022/09/01 21:14:13;;;;;;;3.47;1.83;;;;;;;19.09;37.40;100077.66;10343324;28;20136;-58
2022/09/01 21:19:50;;;;;;;8.13;1.90;;;;;;;19.01;36.85;100079.31;10340565;28;20046;-59
2022/09/01 21:24:52;;;;;;;5.30;1.80;;;;;;;18.90;37.14;100074.16;10341459;28;20499;-59
2022/09/01 21:30:10;;;;;;;4.80;1.65;;;;;;;18.67;37.78;100081.56;10343551;28;20136;-58
2022/09/01 21:35:18;;;;;;;5.15;1.80;;;;;;;18.56;37.53;100079.06;10340324;28;20194;-58
2022/09/01 21:40:24;;;;;;;6.00;1.73;;;;;;;18.42;37.79;100076.81;10343472;28;20049;-59
2022/09/01 21:45:27;;;;;;;4.53;1.80;;;;;;;18.26;38.15;100074.69;10342480;28;20100;-58
2022/09/01 21:50:29;;;;;;;7.10;1.90;;;;;;;18.08;38.14;100075.44;10341197;28;20273;-58
2022/09/01 21:55:31;;;;;;;7.70;2.10;;;;;;;17.88;38.82;100071.91;10341843;28;20066;-59
2022/09/01 22:00:38;;;;;;;3.03;1.58;;;;;;;17.79;38.74;100070.09;10340742;28;20077;-58
2022/09/01 22:05:41;;;;;;;7.90;1.70;;;;;;;17.90;38.78;100067.31;10343260;28;20056;-59
2022/09/01 22:10:49;;;;;;;4.95;1.80;;;;;;;17.91;38.96;100074.31;10341931;28;20054;-58
2022/09/01 22:15:52;;;;;;;4.72;2.00;;;;;;;17.83;39.49;100069.66;10335972;28;20050;-58
2022/09/01 22:21:05;;;;;;;9.70;1.80;;;;;;;17.75;40.09;100074.78;10337056;28;20053;-58
2022/09/01 22:26:08;;;;;;;4.60;1.90;;;;;;;17.71;40.63;100075.19;10344864;28;20068;-58
2022/09/01 22:31:18;;;;;;;7.70;1.80;;;;;;;17.63;40.78;100064.44;10348921;28;20085;-58
2022/09/01 22:36:26;;;;;;;4.50;1.80;;;;;;;17.69;40.35;100066.53;10346949;28;20049;-58
2022/09/01 22:41:30;;;;;;;4.28;1.90;;;;;;;17.70;40.40;100070.88;10343984;28;20502;-58
2022/09/01 22:46:34;;;;;;;7.07;1.80;;;;;;;17.60;40.64;100062.06;10348229;28;20058;-58
2022/09/01 22:51:40;;;;;;;4.07;1.70;;;;;;;17.38;40.79;100068.38;10345524;28;20508;-59
2022/09/01 22:56:44;;;;;;;5.18;1.60;;;;;;;17.27;41.51;100067.56;10345169;28;20081;-58
2022/09/01 23:01:46;;;;;;;8.95;2.47;;;;;;;17.22;40.94;100062.66;10362837;28;20053;-59
2022/09/01 23:06:52;;;;;;;6.32;1.70;;;;;;;17.10;41.03;100062.91;10347715;28;20046;-59
2022/09/01 23:11:55;;;;;;;7.82;1.90;;;;;;;17.01;41.17;100053.94;10348131;28;20054;-58
2022/09/01 23:16:56;;;;;;;3.47;1.65;;;;;;;16.94;41.48;100058.03;10345304;28;20045;-58
2022/09/01 23:21:58;;;;;;;4.72;1.73;;;;;;;16.94;41.44;100061.53;10345196;28;20804;-58
2022/09/01 23:27:00;;;;;;;8.63;1.77;;;;;;;16.91;41.58;100053.88;10345804;28;20050;-58
2022/09/01 23:32:02;;;;;;;3.17;1.60;;;;;;;16.68;41.98;100057.59;10347025;28;20045;-58
2022/09/01 23:37:04;;;;;;;7.82;1.95;;;;;;;16.63;42.09;100048.38;10343430;28;20140;-58
2022/09/01 23:42:05;;;;;;;7.00;1.80;;;;;;;16.63;42.60;100053.66;10343340;28;21010;-58
2022/09/01 23:47:07;;;;;;;6.00;1.80;;;;;;;16.57;42.28;100048.88;10345895;28;20049;-58